sensor_id;sensor_type;location;lat;lon;timestamp;P1;durP1;ratioP1;P2;durP2;ratioP2
22949;SDS011;11641;51.018;4.474;2022-12-18T00:01:56;67.70;;;28.55;;
22949;SDS011;11641;51.018;4.474;2022-12-18T00:04:24;70.85;;;29.45;;
22949;SDS011;11641;51.018;4.474;2022-12-18T00:06:53;72.68;;;28.58;;
22949;SDS011;11641;51.018;4.474;2022-12-18T00:09:19;64.65;;;27.42;;
22949;SDS011;11641;51.018;4.474;2022-12-18T00:11:45;73.80;;;30.00;;
22949;SDS011;11641;51.018;4.474;2022-12-18T00:14:11;72.30;;;29.13;;
22949;SDS011;11641;51.018;4.474;2022-12-18T00:16:38;70.78;;;29.45;;
22949;SDS011;11641;51.018;4.474;2022-12-18T00:19:04;63.08;;;26.73;;
22949;SDS011;11641;51.018;4.474;2022-12-18T00:21:30;64.78;;;29.15;;
22949;SDS011;11641;51.018;4.474;2022-12-18T00:23:57;71.78;;;30.27;;
22949;SDS011;11641;51.018;4.474;2022-12-18T00:26:28;67.93;;;28.63;;
22949;SDS011;11641;51.018;4.474;2022-12-18T00:28:57;70.50;;;29.90;;
22949;SDS011;11641;51.018;4.474;2022-12-18T00:31:26;67.25;;;29.58;;
22949;SDS011;11641;51.018;4.474;2022-12-18T00:33:56;66.78;;;29.35;;
22949;SDS011;11641;51.018;4.474;2022-12-18T00:36:23;68.75;;;28.88;;
22949;SDS011;11641;51.018;4.474;2022-12-18T00:38:53;69.20;;;28.70;;
22949;SDS011;11641;51.018;4.474;2022-12-18T00:41:20;65.47;;;28.58;;
22949;SDS011;11641;51.018;4.474;2022-12-18T00:44:05;68.25;;;28.13;;
22949;SDS011;11641;51.018;4.474;2022-12-18T00:46:32;65.85;;;28.05;;
22949;SDS011;11641;51.018;4.474;2022-12-18T00:48:58;68.03;;;29.05;;
22949;SDS011;11641;51.018;4.474;2022-12-18T00:51:26;74.28;;;28.70;;
22949;SDS011;11641;51.018;4.474;2022-12-18T00:53:55;67.28;;;27.80;;
22949;SDS011;11641;51.018;4.474;2022-12-18T00:56:21;64.75;;;26.77;;
22949;SDS011;11641;51.018;4.474;2022-12-18T00:58:47;75.53;;;29.85;;
22949;SDS011;11641;51.018;4.474;2022-12-18T01:01:13;70.93;;;28.55;;
22949;SDS011;11641;51.018;4.474;2022-12-18T01:03:39;73.57;;;28.63;;
22949;SDS011;11641;51.018;4.474;2022-12-18T01:06:06;65.70;;;28.48;;
22949;SDS011;11641;51.018;4.474;2022-12-18T01:08:32;72.57;;;28.38;;
22949;SDS011;11641;51.018;4.474;2022-12-18T01:10:58;68.82;;;27.77;;
22949;SDS011;11641;51.018;4.474;2022-12-18T01:13:28;66.47;;;27.83;;
22949;SDS011;11641;51.018;4.474;2022-12-18T01:15:53;67.13;;;27.98;;
22949;SDS011;11641;51.018;4.474;2022-12-18T01:18:19;65.15;;;26.77;;
22949;SDS011;11641;51.018;4.474;2022-12-18T01:20:44;68.38;;;26.75;;
22949;SDS011;11641;51.018;4.474;2022-12-18T01:23:10;65.18;;;26.60;;
22949;SDS011;11641;51.018;4.474;2022-12-18T01:25:38;59.85;;;26.70;;
22949;SDS011;11641;51.018;4.474;2022-12-18T01:28:04;58.47;;;25.60;;
22949;SDS011;11641;51.018;4.474;2022-12-18T01:30:29;63.03;;;25.50;;
22949;SDS011;11641;51.018;4.474;2022-12-18T01:32:57;61.42;;;27.10;;
22949;SDS011;11641;51.018;4.474;2022-12-18T01:35:26;62.22;;;25.25;;
22949;SDS011;11641;51.018;4.474;2022-12-18T01:37:54;62.45;;;25.45;;
22949;SDS011;11641;51.018;4.474;2022-12-18T01:40:20;65.15;;;25.80;;
22949;SDS011;11641;51.018;4.474;2022-12-18T01:42:49;56.95;;;24.52;;
22949;SDS011;11641;51.018;4.474;2022-12-18T01:50:15;58.78;;;26.55;;
22949;SDS011;11641;51.018;4.474;2022-12-18T01:52:43;67.20;;;27.35;;
22949;SDS011;11641;51.018;4.474;2022-12-18T01:55:15;63.60;;;27.38;;
22949;SDS011;11641;51.018;4.474;2022-12-18T01:57:43;63.17;;;26.80;;
22949;SDS011;11641;51.018;4.474;2022-12-18T02:00:13;68.53;;;26.88;;
22949;SDS011;11641;51.018;4.474;2022-12-18T02:02:41;61.05;;;24.88;;
22949;SDS011;11641;51.018;4.474;2022-12-18T02:05:09;63.90;;;27.02;;
22949;SDS011;11641;51.018;4.474;2022-12-18T02:15:49;61.00;;;25.73;;
22949;SDS011;11641;51.018;4.474;2022-12-18T02:18:24;66.43;;;26.63;;
22949;SDS011;11641;51.018;4.474;2022-12-18T02:26:43;62.42;;;26.65;;
22949;SDS011;11641;51.018;4.474;2022-12-18T02:29:29;64.80;;;27.15;;
22949;SDS011;11641;51.018;4.474;2022-12-18T02:32:15;62.65;;;25.38;;
22949;SDS011;11641;51.018;4.474;2022-12-18T02:34:52;61.13;;;24.10;;
22949;SDS011;11641;51.018;4.474;2022-12-18T02:37:21;62.22;;;25.55;;
22949;SDS011;11641;51.018;4.474;2022-12-18T02:39:49;64.45;;;26.95;;
22949;SDS011;11641;51.018;4.474;2022-12-18T02:42:19;68.50;;;26.95;;
22949;SDS011;11641;51.018;4.474;2022-12-18T02:44:49;66.75;;;27.10;;
22949;SDS011;11641;51.018;4.474;2022-12-18T02:47:26;61.88;;;24.88;;
22949;SDS011;11641;51.018;4.474;2022-12-18T02:50:02;68.30;;;26.20;;
22949;SDS011;11641;51.018;4.474;2022-12-18T03:01:00;62.42;;;24.70;;
22949;SDS011;11641;51.018;4.474;2022-12-18T03:03:55;60.50;;;24.77;;
22949;SDS011;11641;51.018;4.474;2022-12-18T03:06:35;58.33;;;23.63;;
22949;SDS011;11641;51.018;4.474;2022-12-18T03:09:10;58.05;;;24.00;;
22949;SDS011;11641;51.018;4.474;2022-12-18T03:11:45;60.60;;;25.55;;
22949;SDS011;11641;51.018;4.474;2022-12-18T03:14:36;59.60;;;25.10;;
22949;SDS011;11641;51.018;4.474;2022-12-18T03:17:07;57.00;;;24.52;;
22949;SDS011;11641;51.018;4.474;2022-12-18T03:19:38;57.85;;;24.58;;
22949;SDS011;11641;51.018;4.474;2022-12-18T03:22:07;55.42;;;24.63;;
22949;SDS011;11641;51.018;4.474;2022-12-18T03:24:34;61.47;;;24.40;;
22949;SDS011;11641;51.018;4.474;2022-12-18T03:27:04;56.38;;;24.45;;
22949;SDS011;11641;51.018;4.474;2022-12-18T03:32:02;59.38;;;23.33;;
22949;SDS011;11641;51.018;4.474;2022-12-18T03:34:33;56.78;;;23.13;;
22949;SDS011;11641;51.018;4.474;2022-12-18T03:37:03;53.72;;;21.95;;
22949;SDS011;11641;51.018;4.474;2022-12-18T03:39:29;53.47;;;22.13;;
22949;SDS011;11641;51.018;4.474;2022-12-18T03:41:58;57.28;;;23.05;;
22949;SDS011;11641;51.018;4.474;2022-12-18T03:45:02;52.25;;;22.27;;
22949;SDS011;11641;51.018;4.474;2022-12-18T03:50:49;49.72;;;20.80;;
22949;SDS011;11641;51.018;4.474;2022-12-18T03:55:45;52.25;;;22.55;;
22949;SDS011;11641;51.018;4.474;2022-12-18T03:58:13;53.40;;;23.20;;
22949;SDS011;11641;51.018;4.474;2022-12-18T04:00:43;51.25;;;22.23;;
22949;SDS011;11641;51.018;4.474;2022-12-18T04:03:09;54.88;;;23.08;;
22949;SDS011;11641;51.018;4.474;2022-12-18T04:05:37;54.30;;;21.75;;
22949;SDS011;11641;51.018;4.474;2022-12-18T04:08:03;50.15;;;20.27;;
22949;SDS011;11641;51.018;4.474;2022-12-18T04:10:29;48.70;;;21.35;;
22949;SDS011;11641;51.018;4.474;2022-12-18T04:13:01;55.08;;;21.77;;
22949;SDS011;11641;51.018;4.474;2022-12-18T04:15:29;54.47;;;21.65;;
22949;SDS011;11641;51.018;4.474;2022-12-18T04:17:59;53.70;;;22.13;;
22949;SDS011;11641;51.018;4.474;2022-12-18T04:20:25;49.10;;;20.85;;
22949;SDS011;11641;51.018;4.474;2022-12-18T04:22:53;49.40;;;21.33;;
22949;SDS011;11641;51.018;4.474;2022-12-18T04:25:18;47.78;;;20.75;;
22949;SDS011;11641;51.018;4.474;2022-12-18T04:27:44;49.38;;;19.98;;
22949;SDS011;11641;51.018;4.474;2022-12-18T04:30:10;50.72;;;21.67;;
22949;SDS011;11641;51.018;4.474;2022-12-18T04:32:35;53.63;;;21.92;;
22949;SDS011;11641;51.018;4.474;2022-12-18T04:35:01;51.80;;;23.55;;
22949;SDS011;11641;51.018;4.474;2022-12-18T04:37:29;45.95;;;20.73;;
22949;SDS011;11641;51.018;4.474;2022-12-18T04:39:54;48.78;;;21.67;;
22949;SDS011;11641;51.018;4.474;2022-12-18T04:42:20;44.90;;;20.48;;
22949;SDS011;11641;51.018;4.474;2022-12-18T04:44:46;50.70;;;21.80;;
22949;SDS011;11641;51.018;4.474;2022-12-18T04:47:11;49.60;;;21.40;;
22949;SDS011;11641;51.018;4.474;2022-12-18T04:49:37;49.63;;;21.33;;
22949;SDS011;11641;51.018;4.474;2022-12-18T04:52:03;43.55;;;20.42;;
22949;SDS011;11641;51.018;4.474;2022-12-18T04:54:28;54.22;;;21.70;;
22949;SDS011;11641;51.018;4.474;2022-12-18T04:56:54;52.05;;;21.10;;
22949;SDS011;11641;51.018;4.474;2022-12-18T04:59:20;48.92;;;21.70;;
22949;SDS011;11641;51.018;4.474;2022-12-18T05:01:45;47.85;;;21.85;;
22949;SDS011;11641;51.018;4.474;2022-12-18T05:04:11;50.58;;;22.00;;
22949;SDS011;11641;51.018;4.474;2022-12-18T05:06:39;46.65;;;20.48;;
22949;SDS011;11641;51.018;4.474;2022-12-18T05:09:04;46.65;;;21.42;;
22949;SDS011;11641;51.018;4.474;2022-12-18T05:11:30;46.92;;;21.10;;
22949;SDS011;11641;51.018;4.474;2022-12-18T05:13:56;53.25;;;21.70;;
22949;SDS011;11641;51.018;4.474;2022-12-18T05:16:21;52.47;;;21.60;;
22949;SDS011;11641;51.018;4.474;2022-12-18T05:18:47;49.40;;;19.85;;
22949;SDS011;11641;51.018;4.474;2022-12-18T05:21:12;44.70;;;19.58;;
22949;SDS011;11641;51.018;4.474;2022-12-18T05:23:41;43.55;;;19.83;;
22949;SDS011;11641;51.018;4.474;2022-12-18T05:26:14;52.10;;;20.75;;
22949;SDS011;11641;51.018;4.474;2022-12-18T05:28:41;51.10;;;20.63;;
22949;SDS011;11641;51.018;4.474;2022-12-18T05:31:07;45.45;;;20.45;;
22949;SDS011;11641;51.018;4.474;2022-12-18T05:33:33;49.25;;;19.52;;
22949;SDS011;11641;51.018;4.474;2022-12-18T05:36:03;42.00;;;19.83;;
22949;SDS011;11641;51.018;4.474;2022-12-18T05:38:32;46.97;;;19.83;;
22949;SDS011;11641;51.018;4.474;2022-12-18T05:40:59;46.97;;;19.23;;
22949;SDS011;11641;51.018;4.474;2022-12-18T05:43:25;43.00;;;18.50;;
22949;SDS011;11641;51.018;4.474;2022-12-18T05:45:55;47.97;;;19.55;;
22949;SDS011;11641;51.018;4.474;2022-12-18T05:48:28;40.78;;;18.05;;
22949;SDS011;11641;51.018;4.474;2022-12-18T05:50:53;39.28;;;18.38;;
22949;SDS011;11641;51.018;4.474;2022-12-18T05:53:20;39.90;;;17.52;;
22949;SDS011;11641;51.018;4.474;2022-12-18T05:55:46;44.03;;;18.52;;
22949;SDS011;11641;51.018;4.474;2022-12-18T05:58:12;45.63;;;18.00;;
22949;SDS011;11641;51.018;4.474;2022-12-18T06:00:44;45.88;;;18.10;;
22949;SDS011;11641;51.018;4.474;2022-12-18T06:03:11;43.83;;;18.77;;
22949;SDS011;11641;51.018;4.474;2022-12-18T06:05:39;44.80;;;18.17;;
22949;SDS011;11641;51.018;4.474;2022-12-18T06:08:06;41.83;;;17.58;;
22949;SDS011;11641;51.018;4.474;2022-12-18T06:10:32;41.33;;;18.05;;
22949;SDS011;11641;51.018;4.474;2022-12-18T06:12:58;43.95;;;17.52;;
22949;SDS011;11641;51.018;4.474;2022-12-18T06:15:26;41.15;;;17.65;;
22949;SDS011;11641;51.018;4.474;2022-12-18T06:17:52;46.03;;;17.40;;
22949;SDS011;11641;51.018;4.474;2022-12-18T06:20:17;44.13;;;17.55;;
22949;SDS011;11641;51.018;4.474;2022-12-18T06:22:43;41.38;;;17.80;;
22949;SDS011;11641;51.018;4.474;2022-12-18T06:25:09;42.65;;;17.15;;
22949;SDS011;11641;51.018;4.474;2022-12-18T06:27:37;38.90;;;15.93;;
22949;SDS011;11641;51.018;4.474;2022-12-18T06:30:05;34.15;;;16.73;;
22949;SDS011;11641;51.018;4.474;2022-12-18T06:32:32;43.78;;;17.98;;
22949;SDS011;11641;51.018;4.474;2022-12-18T06:34:57;39.78;;;17.20;;
22949;SDS011;11641;51.018;4.474;2022-12-18T06:37:23;40.33;;;16.73;;
22949;SDS011;11641;51.018;4.474;2022-12-18T06:39:54;38.17;;;16.30;;
22949;SDS011;11641;51.018;4.474;2022-12-18T06:42:23;36.90;;;16.33;;
22949;SDS011;11641;51.018;4.474;2022-12-18T06:44:51;37.67;;;15.63;;
22949;SDS011;11641;51.018;4.474;2022-12-18T06:47:17;36.47;;;16.67;;
22949;SDS011;11641;51.018;4.474;2022-12-18T06:49:43;35.40;;;15.68;;
22949;SDS011;11641;51.018;4.474;2022-12-18T06:52:11;41.63;;;16.77;;
22949;SDS011;11641;51.018;4.474;2022-12-18T06:54:36;36.90;;;15.43;;
22949;SDS011;11641;51.018;4.474;2022-12-18T06:57:02;39.22;;;17.33;;
22949;SDS011;11641;51.018;4.474;2022-12-18T06:59:28;39.83;;;16.13;;
22949;SDS011;11641;51.018;4.474;2022-12-18T07:01:56;41.35;;;16.13;;
22949;SDS011;11641;51.018;4.474;2022-12-18T07:04:21;37.88;;;16.65;;
22949;SDS011;11641;51.018;4.474;2022-12-18T07:06:47;43.65;;;16.77;;
22949;SDS011;11641;51.018;4.474;2022-12-18T07:09:13;42.30;;;17.23;;
22949;SDS011;11641;51.018;4.474;2022-12-18T07:11:38;39.58;;;16.17;;
22949;SDS011;11641;51.018;4.474;2022-12-18T07:14:04;33.13;;;14.93;;
22949;SDS011;11641;51.018;4.474;2022-12-18T07:16:29;40.95;;;15.95;;
22949;SDS011;11641;51.018;4.474;2022-12-18T07:18:57;39.42;;;16.25;;
22949;SDS011;11641;51.018;4.474;2022-12-18T07:21:23;33.40;;;15.50;;
22949;SDS011;11641;51.018;4.474;2022-12-18T07:23:49;37.13;;;15.50;;
22949;SDS011;11641;51.018;4.474;2022-12-18T07:26:16;32.35;;;14.75;;
22949;SDS011;11641;51.018;4.474;2022-12-18T07:28:44;39.50;;;16.15;;
22949;SDS011;11641;51.018;4.474;2022-12-18T07:31:11;36.38;;;15.35;;
22949;SDS011;11641;51.018;4.474;2022-12-18T07:33:41;33.45;;;15.40;;
22949;SDS011;11641;51.018;4.474;2022-12-18T07:36:11;32.33;;;15.43;;
22949;SDS011;11641;51.018;4.474;2022-12-18T07:38:37;36.80;;;15.98;;
22949;SDS011;11641;51.018;4.474;2022-12-18T07:41:06;36.58;;;15.95;;
22949;SDS011;11641;51.018;4.474;2022-12-18T07:43:34;32.25;;;15.27;;
22949;SDS011;11641;51.018;4.474;2022-12-18T07:46:00;32.55;;;14.90;;
22949;SDS011;11641;51.018;4.474;2022-12-18T07:48:27;34.50;;;15.43;;
22949;SDS011;11641;51.018;4.474;2022-12-18T07:50:53;35.85;;;16.13;;
22949;SDS011;11641;51.018;4.474;2022-12-18T07:53:22;35.05;;;15.45;;
22949;SDS011;11641;51.018;4.474;2022-12-18T07:55:48;33.05;;;14.95;;
22949;SDS011;11641;51.018;4.474;2022-12-18T07:58:16;35.38;;;15.07;;
22949;SDS011;11641;51.018;4.474;2022-12-18T08:00:41;31.15;;;15.38;;
22949;SDS011;11641;51.018;4.474;2022-12-18T08:03:07;37.05;;;14.88;;
22949;SDS011;11641;51.018;4.474;2022-12-18T08:05:33;39.25;;;16.95;;
22949;SDS011;11641;51.018;4.474;2022-12-18T08:08:00;30.40;;;14.38;;
22949;SDS011;11641;51.018;4.474;2022-12-18T08:10:25;42.08;;;15.80;;
22949;SDS011;11641;51.018;4.474;2022-12-18T08:12:51;36.38;;;15.25;;
22949;SDS011;11641;51.018;4.474;2022-12-18T08:15:19;34.85;;;16.10;;
22949;SDS011;11641;51.018;4.474;2022-12-18T08:17:45;34.28;;;15.10;;
22949;SDS011;11641;51.018;4.474;2022-12-18T08:20:13;35.45;;;15.27;;
22949;SDS011;11641;51.018;4.474;2022-12-18T08:22:40;34.05;;;14.65;;
22949;SDS011;11641;51.018;4.474;2022-12-18T08:25:06;31.08;;;14.82;;
22949;SDS011;11641;51.018;4.474;2022-12-18T08:27:32;30.27;;;14.95;;
22949;SDS011;11641;51.018;4.474;2022-12-18T08:29:58;39.22;;;14.82;;
22949;SDS011;11641;51.018;4.474;2022-12-18T08:32:24;36.53;;;14.93;;
22949;SDS011;11641;51.018;4.474;2022-12-18T08:34:53;33.20;;;15.18;;
22949;SDS011;11641;51.018;4.474;2022-12-18T08:37:19;28.35;;;14.52;;
22949;SDS011;11641;51.018;4.474;2022-12-18T08:39:47;33.45;;;14.98;;
22949;SDS011;11641;51.018;4.474;2022-12-18T08:42:12;31.00;;;13.95;;
22949;SDS011;11641;51.018;4.474;2022-12-18T08:44:56;34.90;;;15.63;;
22949;SDS011;11641;51.018;4.474;2022-12-18T08:47:22;32.67;;;14.80;;
22949;SDS011;11641;51.018;4.474;2022-12-18T08:49:48;37.20;;;14.88;;
22949;SDS011;11641;51.018;4.474;2022-12-18T08:52:13;28.23;;;14.30;;
22949;SDS011;11641;51.018;4.474;2022-12-18T08:54:39;35.45;;;15.38;;
22949;SDS011;11641;51.018;4.474;2022-12-18T08:57:04;29.27;;;14.43;;
22949;SDS011;11641;51.018;4.474;2022-12-18T08:59:30;36.13;;;14.70;;
22949;SDS011;11641;51.018;4.474;2022-12-18T09:01:56;29.65;;;14.90;;
22949;SDS011;11641;51.018;4.474;2022-12-18T09:04:22;30.10;;;13.88;;
22949;SDS011;11641;51.018;4.474;2022-12-18T09:06:47;32.10;;;14.80;;
22949;SDS011;11641;51.018;4.474;2022-12-18T09:09:13;32.53;;;15.50;;
22949;SDS011;11641;51.018;4.474;2022-12-18T09:11:39;30.63;;;15.20;;
22949;SDS011;11641;51.018;4.474;2022-12-18T09:14:04;32.58;;;14.50;;
22949;SDS011;11641;51.018;4.474;2022-12-18T09:16:30;33.95;;;15.43;;
22949;SDS011;11641;51.018;4.474;2022-12-18T09:18:57;31.88;;;14.55;;
22949;SDS011;11641;51.018;4.474;2022-12-18T09:21:28;31.45;;;14.60;;
22949;SDS011;11641;51.018;4.474;2022-12-18T09:23:56;31.77;;;13.95;;
22949;SDS011;11641;51.018;4.474;2022-12-18T09:26:22;29.65;;;14.15;;
22949;SDS011;11641;51.018;4.474;2022-12-18T09:28:48;31.00;;;14.15;;
22949;SDS011;11641;51.018;4.474;2022-12-18T09:31:17;31.58;;;14.88;;
22949;SDS011;11641;51.018;4.474;2022-12-18T09:33:44;34.65;;;15.55;;
22949;SDS011;11641;51.018;4.474;2022-12-18T09:36:11;28.95;;;15.27;;
22949;SDS011;11641;51.018;4.474;2022-12-18T09:38:39;30.67;;;15.00;;
22949;SDS011;11641;51.018;4.474;2022-12-18T09:41:05;30.67;;;14.60;;
22949;SDS011;11641;51.018;4.474;2022-12-18T09:43:51;32.53;;;14.25;;
22949;SDS011;11641;51.018;4.474;2022-12-18T09:49:19;31.50;;;14.68;;
22949;SDS011;11641;51.018;4.474;2022-12-18T09:54:17;28.33;;;13.27;;
22949;SDS011;11641;51.018;4.474;2022-12-18T09:57:04;31.02;;;14.32;;
22949;SDS011;11641;51.018;4.474;2022-12-18T09:59:39;26.73;;;14.15;;
22949;SDS011;11641;51.018;4.474;2022-12-18T10:02:13;28.58;;;14.48;;
22949;SDS011;11641;51.018;4.474;2022-12-18T10:04:43;25.67;;;14.00;;
22949;SDS011;11641;51.018;4.474;2022-12-18T10:07:20;25.70;;;12.73;;
22949;SDS011;11641;51.018;4.474;2022-12-18T10:10:04;30.88;;;13.65;;
22949;SDS011;11641;51.018;4.474;2022-12-18T10:12:42;25.85;;;13.45;;
22949;SDS011;11641;51.018;4.474;2022-12-18T10:20:29;22.85;;;12.13;;
22949;SDS011;11641;51.018;4.474;2022-12-18T10:28:20;29.95;;;12.73;;
22949;SDS011;11641;51.018;4.474;2022-12-18T10:30:48;26.90;;;12.10;;
22949;SDS011;11641;51.018;4.474;2022-12-18T10:33:18;22.67;;;12.48;;
22949;SDS011;11641;51.018;4.474;2022-12-18T10:35:47;25.17;;;12.45;;
22949;SDS011;11641;51.018;4.474;2022-12-18T10:41:03;23.92;;;12.23;;
22949;SDS011;11641;51.018;4.474;2022-12-18T10:43:30;25.83;;;12.18;;
22949;SDS011;11641;51.018;4.474;2022-12-18T10:48:34;26.67;;;13.07;;
22949;SDS011;11641;51.018;4.474;2022-12-18T10:51:05;24.77;;;12.48;;
22949;SDS011;11641;51.018;4.474;2022-12-18T10:53:33;26.42;;;12.90;;
22949;SDS011;11641;51.018;4.474;2022-12-18T10:56:00;23.38;;;12.52;;
22949;SDS011;11641;51.018;4.474;2022-12-18T10:58:32;26.80;;;12.63;;
22949;SDS011;11641;51.018;4.474;2022-12-18T11:03:29;25.15;;;12.43;;
22949;SDS011;11641;51.018;4.474;2022-12-18T11:08:42;21.27;;;12.23;;
22949;SDS011;11641;51.018;4.474;2022-12-18T11:11:22;26.45;;;13.27;;
22949;SDS011;11641;51.018;4.474;2022-12-18T11:16:36;24.85;;;12.75;;
22949;SDS011;11641;51.018;4.474;2022-12-18T11:19:10;26.02;;;13.48;;
22949;SDS011;11641;51.018;4.474;2022-12-18T11:21:46;24.30;;;13.27;;
22949;SDS011;11641;51.018;4.474;2022-12-18T11:24:49;25.40;;;12.38;;
22949;SDS011;11641;51.018;4.474;2022-12-18T11:27:04;21.33;;;12.55;;
22949;SDS011;11641;51.018;4.474;2022-12-18T11:29:39;24.58;;;12.45;;
22949;SDS011;11641;51.018;4.474;2022-12-18T11:34:41;20.23;;;11.52;;
22949;SDS011;11641;51.018;4.474;2022-12-18T11:37:11;24.58;;;12.05;;
22949;SDS011;11641;51.018;4.474;2022-12-18T11:39:45;22.95;;;12.00;;
22949;SDS011;11641;51.018;4.474;2022-12-18T11:42:38;20.38;;;11.50;;
22949;SDS011;11641;51.018;4.474;2022-12-18T11:47:40;20.50;;;11.23;;
22949;SDS011;11641;51.018;4.474;2022-12-18T11:55:16;23.55;;;12.60;;
22949;SDS011;11641;51.018;4.474;2022-12-18T11:58:05;23.60;;;11.93;;
22949;SDS011;11641;51.018;4.474;2022-12-18T12:00:39;22.70;;;12.02;;
22949;SDS011;11641;51.018;4.474;2022-12-18T12:12:10;29.67;;;15.02;;
22949;SDS011;11641;51.018;4.474;2022-12-18T12:18:13;22.45;;;11.98;;
22949;SDS011;11641;51.018;4.474;2022-12-18T12:23:19;23.98;;;12.48;;
22949;SDS011;11641;51.018;4.474;2022-12-18T12:31:40;24.45;;;13.35;;
22949;SDS011;11641;51.018;4.474;2022-12-18T12:39:59;18.85;;;12.07;;
22949;SDS011;11641;51.018;4.474;2022-12-18T12:42:34;23.83;;;13.45;;
22949;SDS011;11641;51.018;4.474;2022-12-18T12:47:55;22.77;;;13.07;;
22949;SDS011;11641;51.018;4.474;2022-12-18T12:50:27;27.50;;;13.75;;
22949;SDS011;11641;51.018;4.474;2022-12-18T12:52:58;20.92;;;12.60;;
22949;SDS011;11641;51.018;4.474;2022-12-18T12:55:26;23.05;;;13.32;;
22949;SDS011;11641;51.018;4.474;2022-12-18T13:00:30;23.38;;;13.63;;
22949;SDS011;11641;51.018;4.474;2022-12-18T13:05:54;25.75;;;14.73;;
22949;SDS011;11641;51.018;4.474;2022-12-18T13:08:31;27.52;;;14.18;;
22949;SDS011;11641;51.018;4.474;2022-12-18T13:11:28;26.90;;;13.75;;
22949;SDS011;11641;51.018;4.474;2022-12-18T13:14:20;21.27;;;12.45;;
22949;SDS011;11641;51.018;4.474;2022-12-18T13:16:52;26.30;;;13.98;;
22949;SDS011;11641;51.018;4.474;2022-12-18T13:19:50;20.23;;;12.57;;
22949;SDS011;11641;51.018;4.474;2022-12-18T13:22:29;24.85;;;14.90;;
22949;SDS011;11641;51.018;4.474;2022-12-18T13:25:01;25.63;;;15.00;;
22949;SDS011;11641;51.018;4.474;2022-12-18T13:35:42;24.67;;;14.55;;
22949;SDS011;11641;51.018;4.474;2022-12-18T13:44:07;23.42;;;14.38;;
22949;SDS011;11641;51.018;4.474;2022-12-18T13:46:44;24.73;;;14.57;;
22949;SDS011;11641;51.018;4.474;2022-12-18T13:51:39;25.00;;;14.55;;
22949;SDS011;11641;51.018;4.474;2022-12-18T13:56:57;23.85;;;13.93;;
22949;SDS011;11641;51.018;4.474;2022-12-18T13:59:24;25.70;;;14.73;;
22949;SDS011;11641;51.018;4.474;2022-12-18T14:02:14;31.25;;;14.55;;
22949;SDS011;11641;51.018;4.474;2022-12-18T14:04:46;23.90;;;13.70;;
22949;SDS011;11641;51.018;4.474;2022-12-18T14:07:23;26.13;;;14.18;;
22949;SDS011;11641;51.018;4.474;2022-12-18T14:09:54;28.27;;;15.43;;
22949;SDS011;11641;51.018;4.474;2022-12-18T14:15:30;27.55;;;15.23;;
22949;SDS011;11641;51.018;4.474;2022-12-18T14:18:22;28.83;;;16.08;;
22949;SDS011;11641;51.018;4.474;2022-12-18T14:20:55;27.30;;;15.45;;
22949;SDS011;11641;51.018;4.474;2022-12-18T14:23:41;46.83;;;27.67;;
22949;SDS011;11641;51.018;4.474;2022-12-18T14:26:27;43.33;;;27.15;;
22949;SDS011;11641;51.018;4.474;2022-12-18T14:28:58;42.65;;;20.33;;
22949;SDS011;11641;51.018;4.474;2022-12-18T14:31:43;30.38;;;16.67;;
22949;SDS011;11641;51.018;4.474;2022-12-18T14:34:19;30.73;;;17.30;;
22949;SDS011;11641;51.018;4.474;2022-12-18T14:36:53;27.13;;;16.83;;
22949;SDS011;11641;51.018;4.474;2022-12-18T14:39:21;25.67;;;15.43;;
22949;SDS011;11641;51.018;4.474;2022-12-18T14:41:49;32.10;;;16.42;;
22949;SDS011;11641;51.018;4.474;2022-12-18T14:44:14;27.55;;;15.98;;
22949;SDS011;11641;51.018;4.474;2022-12-18T14:46:45;32.70;;;17.70;;
22949;SDS011;11641;51.018;4.474;2022-12-18T14:49:25;28.10;;;16.30;;
22949;SDS011;11641;51.018;4.474;2022-12-18T14:51:56;29.47;;;16.87;;
22949;SDS011;11641;51.018;4.474;2022-12-18T14:54:24;28.67;;;16.13;;
22949;SDS011;11641;51.018;4.474;2022-12-18T14:57:01;31.73;;;17.13;;
22949;SDS011;11641;51.018;4.474;2022-12-18T14:59:39;27.90;;;15.13;;
22949;SDS011;11641;51.018;4.474;2022-12-18T15:05:01;28.15;;;16.10;;
22949;SDS011;11641;51.018;4.474;2022-12-18T15:07:42;35.50;;;17.08;;
22949;SDS011;11641;51.018;4.474;2022-12-18T15:12:50;30.33;;;15.70;;
22949;SDS011;11641;51.018;4.474;2022-12-18T15:20:40;31.00;;;16.77;;
22949;SDS011;11641;51.018;4.474;2022-12-18T15:23:23;30.85;;;15.98;;
22949;SDS011;11641;51.018;4.474;2022-12-18T15:29:01;31.80;;;16.42;;
22949;SDS011;11641;51.018;4.474;2022-12-18T15:31:32;36.25;;;18.50;;
22949;SDS011;11641;51.018;4.474;2022-12-18T15:36:32;33.78;;;17.63;;
22949;SDS011;11641;51.018;4.474;2022-12-18T15:39:03;30.75;;;16.77;;
22949;SDS011;11641;51.018;4.474;2022-12-18T15:41:30;34.30;;;16.55;;
22949;SDS011;11641;51.018;4.474;2022-12-18T15:44:02;30.50;;;16.95;;
22949;SDS011;11641;51.018;4.474;2022-12-18T15:46:40;35.35;;;17.15;;
22949;SDS011;11641;51.018;4.474;2022-12-18T15:49:07;29.58;;;16.17;;
22949;SDS011;11641;51.018;4.474;2022-12-18T15:51:34;33.83;;;17.15;;
22949;SDS011;11641;51.018;4.474;2022-12-18T15:54:04;30.40;;;16.83;;
22949;SDS011;11641;51.018;4.474;2022-12-18T15:56:31;29.38;;;17.00;;
22949;SDS011;11641;51.018;4.474;2022-12-18T15:59:16;35.45;;;16.90;;
22949;SDS011;11641;51.018;4.474;2022-12-18T16:01:44;32.63;;;17.15;;
22949;SDS011;11641;51.018;4.474;2022-12-18T16:04:12;34.08;;;17.55;;
22949;SDS011;11641;51.018;4.474;2022-12-18T16:06:41;32.50;;;17.50;;
22949;SDS011;11641;51.018;4.474;2022-12-18T16:09:07;33.63;;;17.38;;
22949;SDS011;11641;51.018;4.474;2022-12-18T16:11:33;35.97;;;19.48;;
22949;SDS011;11641;51.018;4.474;2022-12-18T16:16:30;37.35;;;19.20;;
22949;SDS011;11641;51.018;4.474;2022-12-18T16:18:56;36.17;;;18.52;;
22949;SDS011;11641;51.018;4.474;2022-12-18T16:21:21;32.08;;;18.13;;
22949;SDS011;11641;51.018;4.474;2022-12-18T16:23:47;33.40;;;17.80;;
22949;SDS011;11641;51.018;4.474;2022-12-18T16:26:13;33.97;;;17.00;;
22949;SDS011;11641;51.018;4.474;2022-12-18T16:28:38;34.63;;;18.05;;
22949;SDS011;11641;51.018;4.474;2022-12-18T16:31:04;31.52;;;16.75;;
22949;SDS011;11641;51.018;4.474;2022-12-18T16:33:30;35.67;;;18.08;;
22949;SDS011;11641;51.018;4.474;2022-12-18T16:35:57;37.67;;;17.80;;
22949;SDS011;11641;51.018;4.474;2022-12-18T16:38:25;32.03;;;16.50;;
22949;SDS011;11641;51.018;4.474;2022-12-18T16:40:51;30.95;;;17.00;;
22949;SDS011;11641;51.018;4.474;2022-12-18T16:46:00;34.05;;;16.92;;
22949;SDS011;11641;51.018;4.474;2022-12-18T16:48:26;34.22;;;17.30;;
22949;SDS011;11641;51.018;4.474;2022-12-18T16:50:56;34.50;;;17.83;;
22949;SDS011;11641;51.018;4.474;2022-12-18T16:53:30;32.10;;;16.90;;
22949;SDS011;11641;51.018;4.474;2022-12-18T16:55:59;34.90;;;17.88;;
22949;SDS011;11641;51.018;4.474;2022-12-18T16:58:25;34.17;;;16.08;;
22949;SDS011;11641;51.018;4.474;2022-12-18T17:00:50;32.13;;;16.50;;
22949;SDS011;11641;51.018;4.474;2022-12-18T17:03:16;33.05;;;16.13;;
22949;SDS011;11641;51.018;4.474;2022-12-18T17:05:42;31.83;;;16.77;;
22949;SDS011;11641;51.018;4.474;2022-12-18T17:08:07;32.03;;;16.42;;
22949;SDS011;11641;51.018;4.474;2022-12-18T17:10:36;33.78;;;17.67;;